createdAt,value
2022-12-09T00:00:08.998Z,3.24
2022-12-09T00:02:36.302Z,3.24
2022-12-09T00:05:04.313Z,3.21
2022-12-09T00:07:31.411Z,3.22
2022-12-09T00:09:58.461Z,3.20
2022-12-09T00:12:25.340Z,3.23
2022-12-09T00:14:52.058Z,3.23
2022-12-09T00:17:19.164Z,3.20
2022-12-09T00:19:46.975Z,3.15
2022-12-09T00:22:13.907Z,3.08
2022-12-09T00:24:40.930Z,3.16
2022-12-09T00:27:07.572Z,3.15
2022-12-09T00:29:34.365Z,3.14
2022-12-09T00:32:01.212Z,3.17
2022-12-09T00:34:28.027Z,3.19
2022-12-09T00:36:54.824Z,3.20
2022-12-09T00:39:21.895Z,3.14
2022-12-09T00:41:50.274Z,3.19
2022-12-09T00:44:17.939Z,3.10
2022-12-09T00:46:44.912Z,3.20
2022-12-09T00:49:12.175Z,3.20
2022-12-09T00:51:39.165Z,3.15
2022-12-09T00:54:06.370Z,3.17
2022-12-09T00:56:33.276Z,3.20
2022-12-09T00:59:00.325Z,3.23
2022-12-09T01:01:28.664Z,3.22
2022-12-09T01:03:57.026Z,3.20
2022-12-09T01:06:25.665Z,3.19
2022-12-09T01:08:53.033Z,3.21
2022-12-09T01:11:22.514Z,3.20
2022-12-09T01:13:50.279Z,3.17
2022-12-09T01:16:23.296Z,3.14
2022-12-09T01:18:50.402Z,3.15
2022-12-09T01:21:18.736Z,3.17
2022-12-09T01:23:46.419Z,3.20
2022-12-09T01:26:13.900Z,3.20
2022-12-09T01:28:41.050Z,3.15
2022-12-09T01:31:15.510Z,3.06
2022-12-09T01:33:43.543Z,2.99
2022-12-09T01:36:14.444Z,3.00
2022-12-09T01:38:41.277Z,3.03
2022-12-09T01:41:08.383Z,3.00
2022-12-09T01:43:36.273Z,2.99
2022-12-09T01:46:03.535Z,3.03
2022-12-09T01:48:33.739Z,3.06
2022-12-09T01:51:13.359Z,2.98
2022-12-09T01:53:43.409Z,3.08
2022-12-09T01:56:23.593Z,3.06
2022-12-09T01:58:52.115Z,3.01
2022-12-09T02:01:19.466Z,2.70
2022-12-09T02:03:47.075Z,2.79
2022-12-09T02:06:15.550Z,2.86
2022-12-09T02:08:43.189Z,2.93
2022-12-09T02:11:45.580Z,2.84
2022-12-09T02:14:19.981Z,2.85
2022-12-09T02:17:30.754Z,2.90
2022-12-09T02:20:23.745Z,2.87
2022-12-09T02:23:02.981Z,2.92
2022-12-09T02:25:50.357Z,2.83
2022-12-09T02:29:07.959Z,2.77
2022-12-09T02:32:17.965Z,2.76
2022-12-09T02:34:49.941Z,2.79
2022-12-09T02:37:17.801Z,2.80
2022-12-09T02:39:57.093Z,2.83
2022-12-09T02:42:26.638Z,2.88
2022-12-09T02:44:53.899Z,2.79
2022-12-09T02:47:24.369Z,2.71
2022-12-09T02:49:55.299Z,2.75
2022-12-09T02:52:23.613Z,2.73
2022-12-09T02:54:50.688Z,2.71
2022-12-09T02:57:21.821Z,2.69
2022-12-09T02:59:48.805Z,2.68
2022-12-09T03:02:26.306Z,2.70
2022-12-09T03:05:32.251Z,2.63
2022-12-09T03:08:48.328Z,2.70
2022-12-09T03:11:20.129Z,2.67
2022-12-09T03:14:17.770Z,2.68
2022-12-09T03:16:54.462Z,2.67
2022-12-09T03:19:28.230Z,2.64
2022-12-09T03:21:57.269Z,2.71
2022-12-09T03:25:04.899Z,2.71
2022-12-09T03:27:52.326Z,2.75
2022-12-09T03:30:19.847Z,2.63
2022-12-09T03:32:47.378Z,2.79
2022-12-09T03:35:53.587Z,2.73
2022-12-09T03:38:22.879Z,2.73
2022-12-09T03:40:59.376Z,2.75
2022-12-09T03:43:30.438Z,2.71
2022-12-09T03:45:59.159Z,2.62
2022-12-09T03:48:26.419Z,2.62
2022-12-09T03:51:00.511Z,2.62
2022-12-09T03:53:42.455Z,2.56
2022-12-09T03:56:35.457Z,2.57
2022-12-09T03:59:04.189Z,2.50
2022-12-09T04:01:32.211Z,2.54
2022-12-09T04:03:59.422Z,2.56
2022-12-09T04:06:26.511Z,2.76
2022-12-09T04:08:57.983Z,2.63
2022-12-09T04:11:27.900Z,2.55
2022-12-09T04:13:54.807Z,2.57
2022-12-09T04:16:21.583Z,2.62
2022-12-09T04:18:49.119Z,2.43
2022-12-09T04:21:16.148Z,2.42
2022-12-09T04:23:43.563Z,2.41
2022-12-09T04:26:22.749Z,2.30
2022-12-09T04:28:50.757Z,2.33
2022-12-09T04:31:18.840Z,2.40
2022-12-09T04:33:46.612Z,2.22
2022-12-09T04:36:15.927Z,2.25
2022-12-09T04:38:43.441Z,2.33
2022-12-09T04:41:11.080Z,2.37
2022-12-09T04:43:38.426Z,2.41
2022-12-09T04:46:08.959Z,2.46
2022-12-09T04:48:36.045Z,2.50
2022-12-09T04:51:03.292Z,2.49
2022-12-09T04:53:30.447Z,2.46
2022-12-09T04:56:12.837Z,2.49
2022-12-09T04:58:39.760Z,2.52
2022-12-09T05:01:08.431Z,2.50
2022-12-09T05:03:36.164Z,2.45
2022-12-09T05:06:05.484Z,2.44
2022-12-09T05:08:32.611Z,2.43
2022-12-09T05:11:00.816Z,2.46
2022-12-09T05:13:28.067Z,2.48
2022-12-09T05:16:00.563Z,2.46
2022-12-09T05:18:29.008Z,2.50
2022-12-09T05:20:56.137Z,2.33
2022-12-09T05:23:23.252Z,2.22
2022-12-09T05:25:50.191Z,2.35
2022-12-09T05:28:17.825Z,2.28
2022-12-09T05:30:45.184Z,2.36
2022-12-09T05:33:12.332Z,2.25
2022-12-09T05:35:49.188Z,1.98
2022-12-09T05:38:19.562Z,2.01
2022-12-09T05:40:46.644Z,2.20
2022-12-09T05:43:14.432Z,2.24
2022-12-09T05:45:41.493Z,1.99
2022-12-09T05:48:08.523Z,2.12
2022-12-09T05:50:36.017Z,2.03
2022-12-09T05:53:03.936Z,2.04
2022-12-09T05:55:30.846Z,2.04
2022-12-09T05:57:58.011Z,2.07
2022-12-09T06:00:25.267Z,2.05
2022-12-09T06:02:52.702Z,2.08
2022-12-09T06:05:19.935Z,2.07
2022-12-09T06:07:47.292Z,2.08
2022-12-09T06:10:14.810Z,2.01
2022-12-09T06:12:42.557Z,1.95
2022-12-09T06:15:11.347Z,1.94
2022-12-09T06:17:40.508Z,2.12
2022-12-09T06:20:08.467Z,2.03
2022-12-09T06:22:35.711Z,2.03
2022-12-09T06:25:02.684Z,1.96
2022-12-09T06:27:30.328Z,1.98
2022-12-09T06:29:57.687Z,1.96
2022-12-09T06:32:24.594Z,2.05
2022-12-09T06:34:51.562Z,2.04
2022-12-09T06:37:18.827Z,2.12
2022-12-09T06:39:46.043Z,1.95
2022-12-09T06:42:13.739Z,1.89
2022-12-09T06:44:40.941Z,1.89
2022-12-09T06:47:08.535Z,2.00
2022-12-09T06:49:35.677Z,2.02
2022-12-09T06:52:03.163Z,2.08
2022-12-09T06:54:30.385Z,2.05
2022-12-09T06:56:57.722Z,1.99
2022-12-09T06:59:27.588Z,2.06
2022-12-09T07:01:54.559Z,2.10
2022-12-09T07:04:23.235Z,2.14
2022-12-09T07:06:50.438Z,2.06
2022-12-09T07:09:19.959Z,2.11
2022-12-09T07:11:48.105Z,2.05
2022-12-09T07:14:16.763Z,2.04
2022-12-09T07:16:43.994Z,2.03
2022-12-09T07:19:18.204Z,2.13
2022-12-09T07:21:45.567Z,2.15
2022-12-09T07:24:13.365Z,2.08
2022-12-09T07:26:40.729Z,2.12
2022-12-09T07:29:08.631Z,2.15
2022-12-09T07:31:36.609Z,2.24
2022-12-09T07:34:05.099Z,2.18
2022-12-09T07:36:34.538Z,2.23
2022-12-09T07:39:07.566Z,2.21
2022-12-09T07:41:34.688Z,2.21
2022-12-09T07:44:01.877Z,2.21
2022-12-09T07:46:29.295Z,2.27
2022-12-09T07:48:57.619Z,2.15
2022-12-09T07:51:26.019Z,2.06
2022-12-09T07:53:53.749Z,2.07
2022-12-09T07:56:21.806Z,2.01
2022-12-09T07:58:49.516Z,2.05
2022-12-09T08:01:18.867Z,2.00
2022-12-09T08:03:46.798Z,2.15
2022-12-09T08:06:20.494Z,2.13
2022-12-09T08:08:48.629Z,2.12
2022-12-09T08:11:25.416Z,2.26
2022-12-09T08:13:53.205Z,2.17
2022-12-09T08:16:22.824Z,2.24
2022-12-09T08:18:50.655Z,2.36
2022-12-09T08:21:37.609Z,2.49
2022-12-09T08:24:06.363Z,2.43
2022-12-09T08:26:35.170Z,2.31
2022-12-09T08:29:02.712Z,2.32
2022-12-09T08:31:30.325Z,2.33
2022-12-09T08:33:58.847Z,2.36
2022-12-09T08:36:28.289Z,2.30
2022-12-09T08:38:56.456Z,2.35
2022-12-09T08:41:36.861Z,2.37
2022-12-09T08:44:12.951Z,2.40
2022-12-09T08:46:43.837Z,2.43
2022-12-09T08:49:14.409Z,2.26
2022-12-09T08:51:42.932Z,2.22
2022-12-09T08:54:09.940Z,2.20
2022-12-09T08:56:37.438Z,2.34
2022-12-09T08:59:04.999Z,2.25
2022-12-09T09:01:35.624Z,2.10
2022-12-09T09:04:06.806Z,2.32
2022-12-09T09:06:34.980Z,2.38
2022-12-09T09:09:03.082Z,2.32
2022-12-09T09:11:30.732Z,2.23
2022-12-09T09:13:58.634Z,2.19
2022-12-09T09:16:27.451Z,2.28
2022-12-09T09:18:55.388Z,2.28
2022-12-09T09:21:24.404Z,2.31
2022-12-09T09:23:51.949Z,2.36
2022-12-09T09:26:22.000Z,2.42
2022-12-09T09:28:50.224Z,2.45
2022-12-09T09:31:20.664Z,2.35
2022-12-09T09:33:48.918Z,2.46
2022-12-09T09:36:22.612Z,2.48
2022-12-09T09:38:51.534Z,2.44
2022-12-09T09:41:46.461Z,2.53
2022-12-09T09:44:27.358Z,2.49
2022-12-09T09:46:55.979Z,2.53
2022-12-09T09:49:32.794Z,2.49
2022-12-09T09:52:00.570Z,2.54
2022-12-09T09:54:28.062Z,2.59
2022-12-09T09:57:01.457Z,2.49
2022-12-09T09:59:50.415Z,2.47
2022-12-09T10:02:53.440Z,2.55
2022-12-09T10:05:43.507Z,2.60
2022-12-09T10:08:39.555Z,2.71
2022-12-09T10:11:29.911Z,2.62
2022-12-09T10:14:23.362Z,2.56
2022-12-09T10:17:28.557Z,2.69
2022-12-09T10:20:18.713Z,2.66
2022-12-09T10:22:54.887Z,2.71
2022-12-09T10:25:27.706Z,2.74
2022-12-09T10:28:07.305Z,2.66
2022-12-09T10:30:41.788Z,2.69
2022-12-09T10:33:15.944Z,2.82
2022-12-09T10:35:44.164Z,3.00
2022-12-09T10:38:14.075Z,2.97
2022-12-09T10:40:47.160Z,2.91
2022-12-09T10:43:44.707Z,3.04
2022-12-09T10:46:21.406Z,3.19
2022-12-09T10:48:56.219Z,3.30
2022-12-09T10:51:26.914Z,3.05
2022-12-09T10:54:25.718Z,3.06
2022-12-09T10:57:26.707Z,3.13
2022-12-09T11:00:00.075Z,3.07
2022-12-09T11:02:28.729Z,3.14
2022-12-09T11:04:57.950Z,3.19
2022-12-09T11:07:27.127Z,3.18
2022-12-09T11:10:18.147Z,3.25
2022-12-09T11:12:46.551Z,3.28
2022-12-09T11:15:43.848Z,3.32
2022-12-09T11:18:35.056Z,3.15
2022-12-09T11:21:05.938Z,3.19
2022-12-09T11:23:36.728Z,3.10
2022-12-09T11:26:06.889Z,3.04
2022-12-09T11:28:39.482Z,3.10
2022-12-09T11:31:29.393Z,3.16
2022-12-09T11:34:00.352Z,3.22
2022-12-09T11:36:36.908Z,3.23
2022-12-09T11:39:32.137Z,3.29
2022-12-09T11:42:19.962Z,3.35
2022-12-09T11:45:16.957Z,3.22
2022-12-09T11:50:34.772Z,3.34
2022-12-09T11:53:32.207Z,3.25
2022-12-09T11:56:20.603Z,3.24
2022-12-09T11:58:55.320Z,3.17
2022-12-09T12:01:33.909Z,3.13
2022-12-09T12:04:02.260Z,3.15
2022-12-09T12:06:43.908Z,3.22
2022-12-09T12:09:23.321Z,3.34
2022-12-09T12:12:09.711Z,3.24
2022-12-09T12:14:38.887Z,3.32
2022-12-09T12:17:32.209Z,3.17
2022-12-09T12:19:59.031Z,3.27
2022-12-09T12:23:06.509Z,3.30
2022-12-09T12:25:53.697Z,3.41
2022-12-09T12:28:39.100Z,3.35
2022-12-09T12:31:39.560Z,3.37
2022-12-09T12:34:24.748Z,3.33
2022-12-09T12:37:27.311Z,3.24
2022-12-09T12:40:26.768Z,3.28
2022-12-09T12:43:23.824Z,3.19
2022-12-09T12:46:18.046Z,3.25
2022-12-09T12:48:58.779Z,3.39
2022-12-09T12:51:33.401Z,3.33
2022-12-09T12:54:09.433Z,3.42
2022-12-09T12:57:08.039Z,3.51
2022-12-09T12:59:50.382Z,3.45
2022-12-09T13:03:09.774Z,3.44
2022-12-09T13:05:40.259Z,3.17
2022-12-09T13:08:27.385Z,3.41
2022-12-09T13:10:56.468Z,3.44
2022-12-09T13:13:31.504Z,3.27
2022-12-09T13:16:02.235Z,3.25
2022-12-09T13:18:32.591Z,3.38
2022-12-09T13:21:01.309Z,3.46
2022-12-09T13:23:58.671Z,3.56
2022-12-09T13:27:00.220Z,3.45
2022-12-09T13:29:57.791Z,3.58
2022-12-09T13:32:57.892Z,3.52
2022-12-09T13:35:55.141Z,3.57
2022-12-09T13:38:42.781Z,3.40
2022-12-09T13:42:04.805Z,3.53
2022-12-09T13:44:34.967Z,3.55
2022-12-09T13:47:35.196Z,3.47
2022-12-09T13:50:07.830Z,3.51
2022-12-09T13:53:01.556Z,3.46
2022-12-09T13:55:34.977Z,3.50
2022-12-09T13:58:46.643Z,3.49
2022-12-09T14:01:44.105Z,3.43
2022-12-09T14:04:22.893Z,3.26
2022-12-09T14:07:28.357Z,3.37
2022-12-09T14:09:58.290Z,3.38
2022-12-09T14:16:38.673Z,3.46
2022-12-09T14:19:44.694Z,3.40
2022-12-09T14:22:18.788Z,3.35
2022-12-09T14:24:59.214Z,3.34
2022-12-09T14:27:28.797Z,3.34
2022-12-09T14:29:58.485Z,3.28
2022-12-09T14:32:54.061Z,3.17
2022-12-09T14:35:48.593Z,3.36
2022-12-09T14:38:27.740Z,3.44
2022-12-09T14:41:31.648Z,3.39
2022-12-09T14:44:20.640Z,3.26
2022-12-09T14:46:54.227Z,3.30
2022-12-09T14:49:24.834Z,3.28
2022-12-09T14:51:58.309Z,3.28
2022-12-09T14:54:37.373Z,3.23
2022-12-09T14:57:09.753Z,3.16
2022-12-09T14:59:49.276Z,3.09
2022-12-09T15:02:19.221Z,3.07
2022-12-09T15:04:48.724Z,2.69
2022-12-09T15:07:27.322Z,2.68
2022-12-09T15:10:04.615Z,2.80
2022-12-09T15:12:46.112Z,2.68
2022-12-09T15:15:26.489Z,2.78
2022-12-09T15:17:57.580Z,2.77
2022-12-09T15:20:28.058Z,2.85
2022-12-09T15:23:01.560Z,2.78
2022-12-09T15:25:28.769Z,2.81
2022-12-09T15:28:13.054Z,2.86
2022-12-09T15:30:40.064Z,2.87
2022-12-09T15:33:19.776Z,2.73
2022-12-09T15:36:06.049Z,2.69
2022-12-09T15:38:40.889Z,2.68
2022-12-09T15:41:27.801Z,2.70
2022-12-09T15:43:58.704Z,2.57
2022-12-09T15:46:27.506Z,2.58
2022-12-09T15:48:57.490Z,2.56
2022-12-09T15:51:26.534Z,2.56
2022-12-09T15:53:59.286Z,2.45
2022-12-09T15:56:59.510Z,2.47
2022-12-09T15:59:34.266Z,2.29
2022-12-09T16:02:01.807Z,2.34
2022-12-09T16:04:32.085Z,2.42
2022-12-09T16:07:06.785Z,2.18
2022-12-09T16:09:34.348Z,2.20
2022-12-09T16:12:02.091Z,2.26
2022-12-09T16:17:29.000Z,2.28
2022-12-09T16:19:56.438Z,2.11
2022-12-09T16:22:35.704Z,2.10
2022-12-09T16:25:15.127Z,2.19
2022-12-09T16:27:48.918Z,2.24
2022-12-09T16:30:21.597Z,2.35
2022-12-09T16:32:51.071Z,2.31
2022-12-09T16:35:38.181Z,2.29
2022-12-09T16:38:32.105Z,2.30
2022-12-09T16:41:01.932Z,2.30
2022-12-09T16:43:30.943Z,2.30
2022-12-09T16:46:33.053Z,2.38
2022-12-09T16:49:04.703Z,2.28
2022-12-09T16:51:32.293Z,2.27
2022-12-09T16:54:03.634Z,2.27
2022-12-09T16:56:32.229Z,2.15
2022-12-09T16:59:00.302Z,2.17
2022-12-09T17:01:32.025Z,2.39
2022-12-09T17:04:04.786Z,2.62
2022-12-09T17:06:32.750Z,2.45
2022-12-09T17:08:59.696Z,2.42
2022-12-09T17:11:26.921Z,2.41
2022-12-09T17:13:54.102Z,2.30
2022-12-09T17:16:25.991Z,2.27
2022-12-09T17:18:53.019Z,2.17
2022-12-09T17:21:23.767Z,2.36
2022-12-09T17:23:50.877Z,2.37
2022-12-09T17:26:20.733Z,2.44
2022-12-09T17:28:48.745Z,2.28
2022-12-09T17:31:18.567Z,2.38
2022-12-09T17:33:45.521Z,2.35
2022-12-09T17:36:13.277Z,2.37
2022-12-09T17:38:39.976Z,2.60
2022-12-09T17:41:10.093Z,2.63
2022-12-09T17:43:37.096Z,3.12
2022-12-09T17:46:05.809Z,3.23
2022-12-09T17:48:33.969Z,3.15
2022-12-09T17:51:08.855Z,2.92
2022-12-09T17:53:41.152Z,2.89
2022-12-09T17:56:16.057Z,2.70
2022-12-09T17:58:46.751Z,2.99
2022-12-09T18:01:19.293Z,2.65
2022-12-09T18:04:07.986Z,2.93
2022-12-09T18:06:35.097Z,2.92
2022-12-09T18:09:03.161Z,3.07
2022-12-09T18:11:30.424Z,2.91
2022-12-09T18:13:57.286Z,2.69
2022-12-09T18:16:24.261Z,2.57
2022-12-09T18:18:51.154Z,2.69
2022-12-09T18:21:20.001Z,2.82
2022-12-09T18:23:48.521Z,2.71
2022-12-09T18:26:17.614Z,2.64
2022-12-09T18:28:44.724Z,2.68
2022-12-09T18:31:14.992Z,2.79
2022-12-09T18:33:42.782Z,2.85
2022-12-09T18:36:12.321Z,2.64
2022-12-09T18:38:40.506Z,2.59
2022-12-09T18:43:54.109Z,2.71
2022-12-09T18:46:30.144Z,2.69
2022-12-09T18:49:08.764Z,2.65
2022-12-09T18:51:36.466Z,2.70
2022-12-09T18:54:04.429Z,2.87
2022-12-09T18:56:32.220Z,2.95
2022-12-09T18:59:07.985Z,3.03
2022-12-09T19:01:39.989Z,2.74
2022-12-09T19:04:11.544Z,2.67
2022-12-09T19:06:40.394Z,2.72
2022-12-09T19:09:16.725Z,2.89
2022-12-09T19:11:44.645Z,2.85
2022-12-09T19:14:12.829Z,2.78
2022-12-09T19:16:41.000Z,2.81
2022-12-09T19:19:10.330Z,2.69
2022-12-09T19:21:38.868Z,2.57
2022-12-09T19:24:06.710Z,2.61
2022-12-09T19:26:35.315Z,2.50
2022-12-09T19:29:05.087Z,2.35
2022-12-09T19:31:36.231Z,2.33
2022-12-09T19:34:05.813Z,2.36
2022-12-09T19:36:35.702Z,2.34
2022-12-09T19:39:04.144Z,2.53
2022-12-09T19:41:31.301Z,2.62
2022-12-09T19:43:59.441Z,2.58
2022-12-09T19:46:27.565Z,2.58
2022-12-09T19:48:55.074Z,2.66
2022-12-09T19:51:22.423Z,2.65
2022-12-09T19:53:49.271Z,2.66
2022-12-09T19:56:19.099Z,2.57
2022-12-09T19:58:47.321Z,2.56
2022-12-09T20:01:30.052Z,2.59
2022-12-09T20:04:19.331Z,2.60
2022-12-09T20:06:52.871Z,2.63
2022-12-09T20:09:24.568Z,2.51
2022-12-09T20:11:52.997Z,2.32
2022-12-09T20:14:20.234Z,2.53
2022-12-09T20:16:47.438Z,2.27
2022-12-09T20:19:14.375Z,2.30
2022-12-09T20:21:41.226Z,2.46
2022-12-09T20:24:09.145Z,2.53
2022-12-09T20:26:38.077Z,2.40
2022-12-09T20:29:08.009Z,2.31
2022-12-09T20:31:36.732Z,2.07
2022-12-09T20:34:10.779Z,2.07
2022-12-09T20:36:41.189Z,2.11
2022-12-09T20:39:12.701Z,2.00
2022-12-09T20:41:42.586Z,2.11
2022-12-09T20:44:12.556Z,2.22
2022-12-09T20:46:40.783Z,2.27
2022-12-09T20:49:09.904Z,2.43
2022-12-09T20:51:38.665Z,2.44
2022-12-09T20:54:07.350Z,2.38
2022-12-09T20:56:34.546Z,2.42
2022-12-09T20:59:01.565Z,2.40
2022-12-09T21:01:30.726Z,2.49
2022-12-09T21:03:59.281Z,2.51
2022-12-09T21:06:30.836Z,2.60
2022-12-09T21:09:08.682Z,2.52
2022-12-09T21:11:35.820Z,2.59
2022-12-09T21:14:04.898Z,2.47
2022-12-09T21:16:34.337Z,2.49
2022-12-09T21:19:05.410Z,2.41
2022-12-09T21:21:35.724Z,2.29
2022-12-09T21:24:03.748Z,2.31
2022-12-09T21:26:31.049Z,2.43
2022-12-09T21:28:59.625Z,2.58
2022-12-09T21:31:28.799Z,2.32
2022-12-09T21:33:57.605Z,2.32
2022-12-09T21:36:29.774Z,2.34
2022-12-09T21:38:56.687Z,2.25
2022-12-09T21:41:26.111Z,2.13
2022-12-09T21:43:55.331Z,2.36
2022-12-09T21:46:29.725Z,2.30
2022-12-09T21:49:03.282Z,2.16
2022-12-09T21:51:31.206Z,2.14
2022-12-09T21:53:58.003Z,2.29
2022-12-09T21:56:26.949Z,2.29
2022-12-09T21:58:55.577Z,2.24
2022-12-09T22:01:26.289Z,2.39
2022-12-09T22:03:53.762Z,2.26
2022-12-09T22:06:21.628Z,2.20
2022-12-09T22:08:48.784Z,2.17
2022-12-09T22:11:19.618Z,2.18
2022-12-09T22:13:46.648Z,1.97
2022-12-09T22:16:24.606Z,2.26
2022-12-09T22:18:53.712Z,2.20
2022-12-09T22:21:26.260Z,2.40
2022-12-09T22:23:54.840Z,2.30
2022-12-09T22:26:22.475Z,2.47
2022-12-09T22:28:49.376Z,2.51
2022-12-09T22:31:36.973Z,2.44
2022-12-09T22:34:18.581Z,2.52
2022-12-09T22:36:47.661Z,2.39
2022-12-09T22:39:18.014Z,2.58
2022-12-09T22:41:46.330Z,2.56
2022-12-09T22:44:15.941Z,2.53
2022-12-09T22:46:43.175Z,2.43
2022-12-09T22:49:11.850Z,2.44
2022-12-09T22:51:38.554Z,2.34
2022-12-09T22:54:06.864Z,2.30
2022-12-09T22:56:35.705Z,2.33
2022-12-09T22:59:02.566Z,2.18
2022-12-09T23:01:32.909Z,2.07
2022-12-09T23:04:00.411Z,2.14
2022-12-09T23:06:28.751Z,2.06
2022-12-09T23:08:55.452Z,2.35
2022-12-09T23:11:24.904Z,2.54
2022-12-09T23:13:51.980Z,2.35
2022-12-09T23:16:22.935Z,2.22
2022-12-09T23:18:51.515Z,2.35
2022-12-09T23:21:20.558Z,2.51
2022-12-09T23:23:47.276Z,2.46
2022-12-09T23:26:16.677Z,2.39
2022-12-09T23:28:45.876Z,2.44
2022-12-09T23:31:15.559Z,2.48
2022-12-09T23:33:44.824Z,2.47
2022-12-09T23:36:17.363Z,2.54
2022-12-09T23:38:44.878Z,2.53
2022-12-09T23:41:13.134Z,2.38
2022-12-09T23:43:39.947Z,2.34
2022-12-09T23:46:15.697Z,2.47
2022-12-09T23:48:46.857Z,2.44
2022-12-09T23:51:28.742Z,2.39
2022-12-09T23:54:01.417Z,2.36
2022-12-09T23:56:30.863Z,2.52
2022-12-09T23:59:02.845Z,2.41
